Time;durP1;ratioP1;P1;durP2;ratioP2;P2;SDS_P1;SDS_P2;PMS_P1;PMS_P2;Temp;Humidity;BMP_temperature;BMP_pressure;BME280_temperature;BME280_humidity;BME280_pressure;Samples;Min_cycle;Max_cycle;Signal;HPM_P1;HPM_P2
2020/12/20 12:31:03;;;;;;;;;64.00;51.33;;;;;;;;5083976;27;873493;-75
2020/12/20 12:33:29;;;;;;;;;73.00;58.33;;;;;;;;5106610;28;9784;-79
2020/12/20 12:49:45;;;;;;;;;68.00;52.67;;;;;;;;5114208;27;13580;-73
2020/12/20 12:52:11;;;;;;;;;64.67;51.00;;;;;;;;5096577;28;8976;-74
2020/12/20 12:54:37;;;;;;;;;67.00;55.33;;;;;;;;5095694;28;8868;-75
2020/12/20 12:57:03;;;;;;;;;64.33;51.67;;;;;;;;5097533;28;8994;-75
2020/12/20 12:59:29;;;;;;;;;66.67;53.33;;;;;;;;5047687;28;10452;-73
2020/12/20 13:01:55;;;;;;;;;60.33;49.33;;;;;;;;5044632;28;9727;-79
2020/12/20 13:04:21;;;;;;;;;67.00;53.67;;;;;;;;5081522;28;8948;-73
2020/12/20 13:06:48;;;;;;;;;71.33;56.33;;;;;;;;5084257;28;8828;-74
2020/12/20 13:09:14;;;;;;;;;64.00;52.00;;;;;;;;5085481;28;8945;-74
2020/12/20 13:11:40;;;;;;;;;64.00;51.00;;;;;;;;5084127;28;9582;-75
2020/12/20 13:14:06;;;;;;;;;70.33;56.00;;;;;;;;5084549;28;8871;-73
2020/12/20 13:16:33;;;;;;;;;65.33;52.67;;;;;;;;5081797;28;9775;-73
2020/12/20 13:18:59;;;;;;;;;70.67;56.00;;;;;;;;5082766;28;8861;-72
2020/12/20 13:21:26;;;;;;;;;68.67;54.00;;;;;;;;5083814;28;8971;-74
2020/12/20 13:23:54;;;;;;;;;70.67;55.67;;;;;;;;5064360;28;9605;-73
2020/12/20 13:26:21;;;;;;;;;72.00;57.00;;;;;;;;5084796;28;8837;-73
2020/12/20 13:28:47;;;;;;;;;72.00;58.00;;;;;;;;5081360;28;9611;-72
2020/12/20 13:31:17;;;;;;;;;77.67;61.33;;;;;;;;5083235;28;8956;-72
2020/12/20 13:33:43;;;;;;;;;77.67;60.33;;;;;;;;5079683;28;8978;-73
2020/12/20 13:36:09;;;;;;;;;81.00;64.00;;;;;;;;5082860;28;8852;-72
2020/12/20 13:38:35;;;;;;;;;75.67;58.33;;;;;;;;5080848;28;8856;-72
2020/12/20 13:41:02;;;;;;;;;64.67;51.33;;;;;;;;5079878;28;8864;-71
2020/12/20 13:43:28;;;;;;;;;61.00;50.33;;;;;;;;5083983;28;8856;-71
2020/12/20 13:45:55;;;;;;;;;60.67;50.00;;;;;;;;5083889;28;8868;-75
2020/12/20 13:48:21;;;;;;;;;64.00;50.67;;;;;;;;5084148;28;8828;-71
2020/12/20 13:50:51;;;;;;;;;65.33;53.67;;;;;;;;5085344;28;8843;-70
2020/12/20 13:53:17;;;;;;;;;65.33;52.67;;;;;;;;5085186;28;8832;-71
2020/12/20 13:55:48;;;;;;;;;62.00;50.67;;;;;;;;5080976;28;8991;-69
2020/12/20 13:58:15;;;;;;;;;55.67;43.67;;;;;;;;5079352;28;8857;-72
2020/12/20 14:00:41;;;;;;;;;56.33;46.67;;;;;;;;5065995;28;9645;-72
2020/12/20 14:03:07;;;;;;;;;49.33;42.00;;;;;;;;5063730;28;8844;-71
2020/12/20 14:05:33;;;;;;;;;40.67;36.67;;;;;;;;5070720;28;8840;-71
2020/12/20 14:07:59;;;;;;;;;51.67;41.00;;;;;;;;5071820;28;8937;-75
2020/12/20 14:10:25;;;;;;;;;47.00;39.33;;;;;;;;5090498;28;11609;-78
2020/12/20 14:12:51;;;;;;;;;46.67;38.00;;;;;;;;5090507;28;11661;-75
2020/12/20 14:15:18;;;;;;;;;47.00;41.33;;;;;;;;5091683;28;11540;-78
2020/12/20 14:17:44;;;;;;;;;53.33;41.67;;;;;;;;5090981;28;8952;-77
2020/12/20 14:20:11;;;;;;;;;51.67;42.00;;;;;;;;5076467;28;8857;-73
2020/12/20 14:22:37;;;;;;;;;56.33;46.33;;;;;;;;5066141;28;8841;-78
2020/12/20 14:25:03;;;;;;;;;57.00;45.33;;;;;;;;5068434;28;8872;-76
2020/12/20 14:27:29;;;;;;;;;47.33;41.00;;;;;;;;5068324;28;8975;-76
2020/12/20 14:29:55;;;;;;;;;52.67;41.67;;;;;;;;5064952;28;8967;-75
2020/12/20 14:32:21;;;;;;;;;54.67;43.00;;;;;;;;5070113;28;8929;-77
2020/12/20 14:34:47;;;;;;;;;53.33;42.33;;;;;;;;5069323;28;8829;-75
2020/12/20 14:37:13;;;;;;;;;48.33;39.00;;;;;;;;5071298;28;11557;-81
2020/12/20 14:39:42;;;;;;;;;53.00;42.67;;;;;;;;5071623;28;8860;-79
2020/12/20 14:42:08;;;;;;;;;56.33;44.33;;;;;;;;5070923;28;9003;-83
2020/12/20 14:44:34;;;;;;;;;52.67;45.67;;;;;;;;5070866;28;12254;-80
2020/12/20 14:47:00;;;;;;;;;54.33;43.33;;;;;;;;5071280;28;8886;-78
2020/12/20 14:49:27;;;;;;;;;60.67;49.00;;;;;;;;5071299;28;8930;-75
2020/12/20 14:51:52;;;;;;;;;58.33;47.67;;;;;;;;5071675;28;8974;-76
2020/12/20 14:54:18;;;;;;;;;54.67;45.00;;;;;;;;5071961;28;8859;-78
2020/12/20 14:56:49;;;;;;;;;61.00;49.33;;;;;;;;5071486;28;8879;-80
2020/12/20 14:59:15;;;;;;;;;60.33;49.00;;;;;;;;5070552;28;9640;-80
2020/12/20 15:01:47;;;;;;;;;59.67;48.67;;;;;;;;5070588;28;8849;-82
2020/12/20 15:04:12;;;;;;;;;58.67;48.00;;;;;;;;5035553;28;10398;-80
2020/12/20 15:06:39;;;;;;;;;64.00;49.00;;;;;;;;5069211;28;8879;-78
2020/12/20 15:09:05;;;;;;;;;60.00;50.00;;;;;;;;5071429;28;8833;-77
2020/12/20 15:11:31;;;;;;;;;65.00;51.00;;;;;;;;5060924;28;8844;-82
2020/12/20 15:13:57;;;;;;;;;64.00;51.67;;;;;;;;5077504;28;8814;-76
2020/12/20 15:16:23;;;;;;;;;64.67;52.33;;;;;;;;5092056;28;8850;-77
2020/12/20 15:18:49;;;;;;;;;60.67;47.67;;;;;;;;5091363;28;8843;-78
2020/12/20 15:21:15;;;;;;;;;61.33;50.00;;;;;;;;5092291;28;8969;-83
2020/12/20 15:23:43;;;;;;;;;64.00;51.00;;;;;;;;5093848;28;8864;-87
2020/12/20 15:26:09;;;;;;;;;59.00;48.00;;;;;;;;5092511;28;8826;-81
2020/12/20 15:28:35;;;;;;;;;61.00;50.00;;;;;;;;5080740;28;8838;-81
2020/12/20 15:31:01;;;;;;;;;59.67;48.00;;;;;;;;5092564;28;8831;-83
2020/12/20 15:33:27;;;;;;;;;64.33;50.33;;;;;;;;5092083;28;8846;-82
2020/12/20 15:35:53;;;;;;;;;61.67;50.00;;;;;;;;5091862;28;9577;-79
2020/12/20 15:38:19;;;;;;;;;57.00;47.00;;;;;;;;5067023;28;8948;-73
2020/12/20 15:40:46;;;;;;;;;61.00;48.33;;;;;;;;5070905;28;8958;-78
2020/12/20 15:43:11;;;;;;;;;68.00;53.00;;;;;;;;5071489;28;8958;-79
2020/12/20 15:45:37;;;;;;;;;66.33;53.00;;;;;;;;5070748;28;8864;-83
2020/12/20 15:48:03;;;;;;;;;36.67;24.33;;;;;;;;5070556;28;8864;-82
2020/12/20 15:50:29;;;;;;;;;61.00;50.00;;;;;;;;5068520;28;8982;-78
2020/12/20 15:52:55;;;;;;;;;67.00;55.67;;;;;;;;5068988;28;8848;-76
2020/12/20 15:55:21;;;;;;;;;72.67;56.00;;;;;;;;5069484;28;9873;-78
2020/12/20 15:57:49;;;;;;;;;71.00;56.33;;;;;;;;5069162;28;8828;-79
2020/12/20 16:00:15;;;;;;;;;72.00;57.33;;;;;;;;5068711;28;8939;-76
2020/12/20 16:02:41;;;;;;;;;71.33;55.00;;;;;;;;5069866;28;8934;-77
2020/12/20 16:05:07;;;;;;;;;73.00;56.00;;;;;;;;5069638;28;8963;-77
2020/12/20 16:07:33;;;;;;;;;65.00;54.00;;;;;;;;5068579;28;8853;-76
2020/12/20 16:09:59;;;;;;;;;63.33;53.33;;;;;;;;5069671;28;8841;-76
2020/12/20 16:12:25;;;;;;;;;69.00;55.33;;;;;;;;5069637;28;8836;-77
2020/12/20 16:14:51;;;;;;;;;68.33;55.00;;;;;;;;5070116;28;8983;-77
2020/12/20 16:17:17;;;;;;;;;68.00;55.00;;;;;;;;5068980;28;8854;-76
2020/12/20 16:19:43;;;;;;;;;70.00;56.00;;;;;;;;5069634;28;8843;-77
2020/12/20 16:22:09;;;;;;;;;67.33;53.33;;;;;;;;5068285;28;8852;-77
2020/12/20 16:24:35;;;;;;;;;70.67;56.00;;;;;;;;5069437;28;9705;-77
2020/12/20 16:27:01;;;;;;;;;64.00;51.67;;;;;;;;5069632;28;8836;-76
2020/12/20 16:29:27;;;;;;;;;74.67;59.00;;;;;;;;5069674;28;8926;-77
2020/12/20 16:31:56;;;;;;;;;69.67;56.00;;;;;;;;5069431;28;8856;-77
2020/12/20 16:34:23;;;;;;;;;71.67;57.00;;;;;;;;5068680;28;8836;-77
2020/12/20 16:36:49;;;;;;;;;72.67;56.00;;;;;;;;5069210;28;8947;-76
2020/12/20 16:39:15;;;;;;;;;72.00;57.67;;;;;;;;5069217;28;8821;-76
2020/12/20 16:41:42;;;;;;;;;75.67;59.33;;;;;;;;5069489;28;8864;-76
2020/12/20 16:44:08;;;;;;;;;72.00;57.00;;;;;;;;5069558;28;8961;-77
2020/12/20 16:46:37;;;;;;;;;71.33;56.67;;;;;;;;5064529;28;8825;-70
2020/12/20 16:49:04;;;;;;;;;73.00;57.33;;;;;;;;5068620;28;8823;-69
2020/12/20 16:51:30;;;;;;;;;67.00;53.00;;;;;;;;5079858;28;8982;-69
2020/12/20 16:53:55;;;;;;;;;40.00;32.33;;;;;;;;5061926;28;8840;-70
2020/12/20 16:56:21;;;;;;;;;66.67;54.00;;;;;;;;5061593;28;9446;-72
2020/12/20 16:58:47;;;;;;;;;70.00;55.00;;;;;;;;5068258;28;8952;-73
2020/12/20 17:01:20;;;;;;;;;70.00;54.33;;;;;;;;5064111;28;8872;-73
2020/12/20 17:03:46;;;;;;;;;76.67;57.67;;;;;;;;5065135;28;9568;-74
2020/12/20 17:06:13;;;;;;;;;70.67;56.67;;;;;;;;5075864;28;8988;-76
2020/12/20 17:08:39;;;;;;;;;66.67;55.00;;;;;;;;5089292;28;8944;-77
2020/12/20 17:11:05;;;;;;;;;75.67;57.67;;;;;;;;5089765;28;8861;-75
2020/12/20 17:13:31;;;;;;;;;69.33;55.67;;;;;;;;5088436;28;8907;-72
2020/12/20 17:15:57;;;;;;;;;71.67;57.00;;;;;;;;5067914;28;8852;-73
2020/12/20 17:18:23;;;;;;;;;70.67;55.67;;;;;;;;5067892;28;8975;-74
2020/12/20 17:20:49;;;;;;;;;71.67;54.67;;;;;;;;5068033;28;8832;-75
2020/12/20 17:23:16;;;;;;;;;72.33;57.67;;;;;;;;5067501;28;8828;-73
2020/12/20 17:25:42;;;;;;;;;33.00;25.67;;;;;;;;5067687;28;8959;-73
2020/12/20 17:28:08;;;;;;;;;50.00;41.00;;;;;;;;5068605;28;8855;-74
2020/12/20 17:30:34;;;;;;;;;73.33;57.33;;;;;;;;5068239;28;8898;-73
2020/12/20 17:33:00;;;;;;;;;79.67;61.67;;;;;;;;5068684;28;8849;-73
2020/12/20 17:35:26;;;;;;;;;72.33;58.00;;;;;;;;5070549;28;8995;-73
2020/12/20 17:37:51;;;;;;;;;70.33;54.67;;;;;;;;5072293;28;9002;-73
2020/12/20 17:40:19;;;;;;;;;73.00;57.00;;;;;;;;5068256;28;8837;-74
2020/12/20 17:42:45;;;;;;;;;72.33;57.00;;;;;;;;5072555;28;8840;-76
2020/12/20 17:45:14;;;;;;;;;72.00;57.33;;;;;;;;5072240;28;8849;-74
2020/12/20 17:47:40;;;;;;;;;92.25;79.75;;;;;;;;5072104;28;8860;-73
2020/12/20 17:50:08;;;;;;;;;76.50;59.00;;;;;;;;5064900;28;8832;-73
2020/12/20 17:52:37;;;;;;;;;23.00;15.33;;;;;;;;5070440;28;8880;-72
2020/12/20 17:55:04;;;;;;;;;75.67;59.33;;;;;;;;5068361;28;8860;-74
2020/12/20 17:57:31;;;;;;;;;79.00;60.67;;;;;;;;5070817;28;8856;-74
2020/12/20 17:59:57;;;;;;;;;79.50;63.25;;;;;;;;5072566;28;8863;-73
2020/12/20 18:02:24;;;;;;;;;76.25;61.00;;;;;;;;5072576;28;8837;-75
2020/12/20 18:04:50;;;;;;;;;86.00;75.25;;;;;;;;5072453;28;8852;-75
2020/12/20 18:07:16;;;;;;;;;87.00;69.25;;;;;;;;5072373;28;8878;-73
2020/12/20 18:09:42;;;;;;;;;85.75;64.25;;;;;;;;5072232;28;9662;-76
2020/12/20 18:12:08;;;;;;;;;78.50;60.50;;;;;;;;5069959;28;8836;-76
2020/12/20 18:14:35;;;;;;;;;72.75;58.00;;;;;;;;5071895;28;8937;-74
2020/12/20 18:17:01;;;;;;;;;71.33;56.67;;;;;;;;5072431;28;8947;-78
2020/12/20 18:19:33;;;;;;;;;66.67;53.67;;;;;;;;5091991;28;8923;-80
2020/12/20 18:21:59;;;;;;;;;73.67;55.33;;;;;;;;5092509;28;8873;-74
2020/12/20 18:24:25;;;;;;;;;71.67;53.33;;;;;;;;5092582;28;8834;-77
2020/12/20 18:26:51;;;;;;;;;64.67;53.67;;;;;;;;5079651;28;8929;-74
2020/12/20 18:29:20;;;;;;;;;71.33;56.33;;;;;;;;5090663;28;8822;-74
2020/12/20 18:31:48;;;;;;;;;74.33;59.67;;;;;;;;5085280;28;8942;-75
2020/12/20 18:34:14;;;;;;;;;72.00;57.00;;;;;;;;5090872;28;8851;-74
2020/12/20 18:36:40;;;;;;;;;73.00;57.67;;;;;;;;5090007;28;8953;-75
2020/12/20 18:39:11;;;;;;;;;70.33;54.67;;;;;;;;5091281;28;8903;-75
2020/12/20 18:41:40;;;;;;;;;68.67;53.67;;;;;;;;5089903;28;8830;-74
2020/12/20 18:44:09;;;;;;;;;75.33;58.67;;;;;;;;5090489;28;8876;-74
2020/12/20 18:46:41;;;;;;;;;69.00;55.33;;;;;;;;5089320;28;8957;-76
2020/12/20 18:49:11;;;;;;;;;68.33;56.33;;;;;;;;5090402;28;8834;-77
2020/12/20 18:51:38;;;;;;;;;72.33;56.67;;;;;;;;5089570;28;8846;-74
2020/12/20 18:54:08;;;;;;;;;68.67;53.67;;;;;;;;5063838;28;8868;-76
2020/12/20 18:56:34;;;;;;;;;68.00;52.33;;;;;;;;5087562;28;9040;-74
2020/12/20 18:59:00;;;;;;;;;65.33;54.00;;;;;;;;5090406;28;8950;-74
2020/12/20 20:20:11;;;;;;;;;67.67;53.67;;;;;;;;5098685;27;13573;-80
2020/12/20 20:22:37;;;;;;;;;62.33;51.00;;;;;;;;5096952;28;8871;-78
2020/12/20 20:25:04;;;;;;;;;68.67;54.00;;;;;;;;5095507;28;8831;-77
2020/12/20 20:27:30;;;;;;;;;64.67;53.33;;;;;;;;5094096;28;8835;-76
2020/12/20 20:29:56;;;;;;;;;59.00;49.67;;;;;;;;5096952;28;8941;-78
2020/12/20 20:32:22;;;;;;;;;61.00;51.33;;;;;;;;5097534;28;8957;-78
2020/12/20 20:34:48;;;;;;;;;64.00;52.33;;;;;;;;5097724;28;8844;-78
2020/12/20 20:37:15;;;;;;;;;64.00;51.00;;;;;;;;5093483;28;8839;-77
2020/12/20 20:39:41;;;;;;;;;59.33;47.00;;;;;;;;5096494;28;8851;-74
2020/12/20 20:42:06;;;;;;;;;65.67;52.00;;;;;;;;5094626;28;8855;-77
2020/12/20 20:44:32;;;;;;;;;63.00;51.00;;;;;;;;5093096;28;8862;-76
2020/12/20 20:46:58;;;;;;;;;63.00;49.67;;;;;;;;5094627;28;8951;-74
2020/12/20 20:49:24;;;;;;;;;58.33;48.33;;;;;;;;5094260;28;8859;-77
2020/12/20 20:51:50;;;;;;;;;62.67;51.00;;;;;;;;5095587;28;8875;-77
2020/12/20 20:54:17;;;;;;;;;58.67;49.67;;;;;;;;5097122;28;8849;-81
2020/12/20 20:56:44;;;;;;;;;67.33;53.33;;;;;;;;5090304;28;9566;-80
2020/12/20 20:59:12;;;;;;;;;66.33;54.33;;;;;;;;5095866;28;8840;-77
2020/12/20 21:01:37;;;;;;;;;71.00;55.67;;;;;;;;5099801;28;8859;-74
2020/12/20 21:04:04;;;;;;;;;68.00;53.00;;;;;;;;5094239;28;8946;-77
2020/12/20 21:06:32;;;;;;;;;68.67;52.33;;;;;;;;5091204;28;9015;-77
2020/12/20 21:08:58;;;;;;;;;68.33;55.00;;;;;;;;5095879;28;8825;-79
2020/12/20 21:11:26;;;;;;;;;67.00;52.33;;;;;;;;5099053;28;9671;-77
2020/12/20 21:13:52;;;;;;;;;62.67;52.00;;;;;;;;5093671;28;9551;-76
2020/12/20 21:16:19;;;;;;;;;63.33;51.33;;;;;;;;5095608;28;8859;-78
2020/12/20 21:18:45;;;;;;;;;61.00;50.33;;;;;;;;5090892;28;8850;-73
2020/12/20 21:21:11;;;;;;;;;63.67;53.00;;;;;;;;5095782;28;8851;-75
2020/12/20 21:23:37;;;;;;;;;67.67;53.00;;;;;;;;5094823;28;8855;-74
2020/12/20 21:26:03;;;;;;;;;63.67;52.67;;;;;;;;5093247;28;8851;-73
2020/12/20 21:28:30;;;;;;;;;69.33;52.33;;;;;;;;5092438;28;8877;-72
2020/12/20 21:30:56;;;;;;;;;63.00;51.33;;;;;;;;5082446;28;8839;-75
2020/12/20 21:33:22;;;;;;;;;66.33;54.00;;;;;;;;5052213;28;10723;-73
2020/12/20 21:35:48;;;;;;;;;64.67;51.33;;;;;;;;5025331;28;8866;-75
2020/12/20 21:38:14;;;;;;;;;63.67;52.67;;;;;;;;5012957;28;9808;-74
2020/12/20 21:40:43;;;;;;;;;66.33;53.67;;;;;;;;4996639;28;8925;-75
2020/12/20 21:43:09;;;;;;;;;63.33;49.33;;;;;;;;5010274;28;9919;-74
2020/12/20 21:45:35;;;;;;;;;67.33;53.33;;;;;;;;5010357;28;8851;-75
2020/12/20 21:48:01;;;;;;;;;63.67;52.67;;;;;;;;5009420;28;8975;-75
2020/12/20 21:50:27;;;;;;;;;66.00;53.00;;;;;;;;5005016;28;8892;-74
2020/12/20 21:52:53;;;;;;;;;64.00;52.00;;;;;;;;5010031;28;8843;-79
2020/12/20 21:55:19;;;;;;;;;67.33;53.67;;;;;;;;5009486;28;8859;-78
2020/12/20 21:57:45;;;;;;;;;71.33;54.67;;;;;;;;5009712;28;8886;-78
2020/12/20 22:00:11;;;;;;;;;67.67;53.00;;;;;;;;5010290;28;8875;-78
2020/12/20 22:02:38;;;;;;;;;64.33;52.33;;;;;;;;5009697;28;8866;-76
2020/12/20 22:05:04;;;;;;;;;64.67;53.00;;;;;;;;5009448;28;8846;-78
2020/12/20 22:07:30;;;;;;;;;66.00;53.00;;;;;;;;5009257;28;8847;-77
2020/12/20 22:09:55;;;;;;;;;66.00;52.67;;;;;;;;5007854;28;8962;-75
2020/12/20 22:12:21;;;;;;;;;69.33;53.33;;;;;;;;5008300;28;8867;-76
2020/12/20 22:14:47;;;;;;;;;66.67;53.00;;;;;;;;5008836;28;9793;-77
2020/12/20 22:17:13;;;;;;;;;67.33;53.33;;;;;;;;5010082;28;8866;-79
2020/12/20 22:19:40;;;;;;;;;63.00;53.00;;;;;;;;5008969;28;8965;-75
2020/12/20 22:22:06;;;;;;;;;67.00;55.00;;;;;;;;5010531;28;8983;-76
2020/12/20 22:24:32;;;;;;;;;65.33;52.67;;;;;;;;5009744;28;8858;-75
2020/12/20 22:27:00;;;;;;;;;67.00;53.00;;;;;;;;5010328;28;8873;-75
2020/12/20 22:29:26;;;;;;;;;26.67;22.67;;;;;;;;5010670;28;8854;-76
2020/12/20 22:31:52;;;;;;;;;68.67;55.00;;;;;;;;5009524;28;8855;-77
2020/12/20 22:34:18;;;;;;;;;75.00;54.00;;;;;;;;5010342;28;8874;-75
2020/12/20 22:36:45;;;;;;;;;69.00;53.00;;;;;;;;5009368;28;8964;-76
2020/12/20 22:39:11;;;;;;;;;68.67;55.33;;;;;;;;5009657;28;8859;-77
2020/12/20 22:41:37;;;;;;;;;68.33;53.33;;;;;;;;5008701;28;8893;-77
2020/12/20 22:44:03;;;;;;;;;66.33;52.33;;;;;;;;5010708;28;8969;-77
2020/12/20 22:46:29;;;;;;;;;68.00;53.33;;;;;;;;5009561;28;8843;-76
2020/12/20 22:48:55;;;;;;;;;64.33;51.00;;;;;;;;5010693;28;8843;-76
2020/12/20 22:51:21;;;;;;;;;65.00;54.33;;;;;;;;5010543;28;8936;-76
2020/12/20 22:53:48;;;;;;;;;69.67;54.33;;;;;;;;5013802;28;8871;-77
2020/12/20 22:56:23;;;;;;;;;66.67;54.00;;;;;;;;5011366;28;8850;-76
2020/12/20 22:58:49;;;;;;;;;67.33;52.67;;;;;;;;5002265;28;8976;-76
2020/12/20 23:01:15;;;;;;;;;68.25;55.25;;;;;;;;5009759;28;8870;-76
2020/12/20 23:03:41;;;;;;;;;70.33;54.33;;;;;;;;5009251;28;8847;-76
2020/12/20 23:06:10;;;;;;;;;61.33;51.33;;;;;;;;5010360;28;8854;-81
2020/12/20 23:11:02;;;;;;;;;59.67;49.00;;;;;;;;5007876;27;849294;-76
2020/12/20 23:13:28;;;;;;;;;65.33;52.67;;;;;;;;5066077;28;8981;-77
2020/12/20 23:15:54;;;;;;;;;55.00;45.67;;;;;;;;5066201;28;8968;-76
2020/12/20 23:18:20;;;;;;;;;66.00;52.33;;;;;;;;5066565;28;8989;-76
2020/12/20 23:20:46;;;;;;;;;64.33;51.33;;;;;;;;5066473;28;8981;-76
2020/12/20 23:23:15;;;;;;;;;63.33;51.00;;;;;;;;5065753;28;8842;-76
2020/12/20 23:25:41;;;;;;;;;62.00;50.33;;;;;;;;5067105;28;8846;-76
2020/12/20 23:28:08;;;;;;;;;59.33;48.33;;;;;;;;5067057;28;8865;-75
2020/12/20 23:30:34;;;;;;;;;48.33;38.33;;;;;;;;5066745;28;8852;-76
2020/12/20 23:33:00;;;;;;;;;62.00;49.33;;;;;;;;5067215;28;8861;-75
2020/12/20 23:35:26;;;;;;;;;56.00;43.00;;;;;;;;5067112;28;8976;-76
2020/12/20 23:37:51;;;;;;;;;63.00;49.33;;;;;;;;5066784;28;8866;-77
2020/12/20 23:40:17;;;;;;;;;65.00;53.33;;;;;;;;5066886;28;8835;-75
2020/12/20 23:42:43;;;;;;;;;55.33;45.33;;;;;;;;5066497;28;8842;-74
2020/12/20 23:45:10;;;;;;;;;57.00;48.67;;;;;;;;5066660;28;8858;-75
2020/12/20 23:47:37;;;;;;;;;50.67;44.00;;;;;;;;5066524;28;8835;-74
2020/12/20 23:50:03;;;;;;;;;61.00;49.00;;;;;;;;5066475;28;8975;-77
2020/12/20 23:52:29;;;;;;;;;58.33;47.67;;;;;;;;5066587;28;8846;-76
2020/12/20 23:54:54;;;;;;;;;63.67;50.33;;;;;;;;5066566;28;8858;-76
2020/12/20 23:57:20;;;;;;;;;62.33;49.33;;;;;;;;5066504;28;8842;-75
2020/12/20 23:59:46;;;;;;;;;60.00;48.67;;;;;;;;5066589;28;8858;-76
